sensor_id;sensor_type;location;lat;lon;timestamp;P1;durP1;ratioP1;P2;durP2;ratioP2
14007;SDS011;61651;45.508;12.232;2023-07-30T07:45:48;1.95;;;1.85;;
14007;SDS011;61651;45.508;12.232;2023-07-30T07:48:51;2.22;;;2.10;;
14007;SDS011;61651;45.508;12.232;2023-07-30T07:51:53;2.03;;;1.90;;
14007;SDS011;61651;45.508;12.232;2023-07-30T07:54:55;2.65;;;2.00;;
14007;SDS011;61651;45.508;12.232;2023-07-30T07:57:58;2.25;;;2.08;;
14007;SDS011;61651;45.508;12.232;2023-07-30T08:01:01;3.20;;;2.08;;
14007;SDS011;61651;45.508;12.232;2023-07-30T08:04:03;2.92;;;2.17;;
14007;SDS011;61651;45.508;12.232;2023-07-30T08:07:05;1.70;;;1.60;;
14007;SDS011;61651;45.508;12.232;2023-07-30T08:10:08;2.17;;;1.63;;
14007;SDS011;61651;45.508;12.232;2023-07-30T08:13:11;1.67;;;1.58;;
14007;SDS011;61651;45.508;12.232;2023-07-30T08:16:15;2.10;;;1.90;;
14007;SDS011;61651;45.508;12.232;2023-07-30T08:19:17;1.90;;;1.80;;
14007;SDS011;61651;45.508;12.232;2023-07-30T08:22:19;1.70;;;1.60;;
14007;SDS011;61651;45.508;12.232;2023-07-30T08:25:21;1.92;;;1.83;;
14007;SDS011;61651;45.508;12.232;2023-07-30T08:28:23;1.80;;;1.70;;
14007;SDS011;61651;45.508;12.232;2023-07-30T08:31:26;1.70;;;1.60;;
14007;SDS011;61651;45.508;12.232;2023-07-30T08:34:28;1.80;;;1.70;;
14007;SDS011;61651;45.508;12.232;2023-07-30T08:37:30;1.75;;;1.65;;
14007;SDS011;61651;45.508;12.232;2023-07-30T08:40:32;2.17;;;1.70;;
14007;SDS011;61651;45.508;12.232;2023-07-30T08:43:35;1.60;;;1.50;;
14007;SDS011;61651;45.508;12.232;2023-07-30T08:46:38;1.70;;;1.50;;
14007;SDS011;61651;45.508;12.232;2023-07-30T08:49:40;1.30;;;1.20;;
14007;SDS011;61651;45.508;12.232;2023-07-30T08:52:42;1.90;;;1.60;;
14007;SDS011;61651;45.508;12.232;2023-07-30T08:55:45;1.40;;;1.30;;
14007;SDS011;61651;45.508;12.232;2023-07-30T08:58:47;1.50;;;1.40;;
14007;SDS011;61651;45.508;12.232;2023-07-30T09:01:54;1.67;;;1.40;;
14007;SDS011;61651;45.508;12.232;2023-07-30T09:04:58;1.60;;;1.50;;
14007;SDS011;61651;45.508;12.232;2023-07-30T09:08:02;1.60;;;1.50;;
14007;SDS011;61651;45.508;12.232;2023-07-30T09:11:07;2.40;;;2.20;;
14007;SDS011;61651;45.508;12.232;2023-07-30T09:14:09;1.70;;;1.60;;
14007;SDS011;61651;45.508;12.232;2023-07-30T09:17:13;2.10;;;1.90;;
14007;SDS011;61651;45.508;12.232;2023-07-30T09:20:18;2.03;;;1.63;;
14007;SDS011;61651;45.508;12.232;2023-07-30T09:23:20;2.13;;;1.42;;
14007;SDS011;61651;45.508;12.232;2023-07-30T09:26:22;2.17;;;1.70;;
14007;SDS011;61651;45.508;12.232;2023-07-30T09:29:24;1.50;;;1.40;;
14007;SDS011;61651;45.508;12.232;2023-07-30T09:32:28;1.70;;;1.60;;
14007;SDS011;61651;45.508;12.232;2023-07-30T09:35:32;2.10;;;2.00;;
14007;SDS011;61651;45.508;12.232;2023-07-30T09:38:38;2.20;;;2.10;;
14007;SDS011;61651;45.508;12.232;2023-07-30T09:41:41;2.25;;;2.10;;
14007;SDS011;61651;45.508;12.232;2023-07-30T09:44:43;2.67;;;2.13;;
14007;SDS011;61651;45.508;12.232;2023-07-30T09:47:50;1.90;;;1.80;;
14007;SDS011;61651;45.508;12.232;2023-07-30T09:50:52;2.50;;;1.98;;
14007;SDS011;61651;45.508;12.232;2023-07-30T09:53:56;2.20;;;2.00;;
14007;SDS011;61651;45.508;12.232;2023-07-30T09:56:58;2.45;;;2.25;;
14007;SDS011;61651;45.508;12.232;2023-07-30T10:00:00;2.40;;;2.30;;
14007;SDS011;61651;45.508;12.232;2023-07-30T10:03:05;2.30;;;2.10;;
14007;SDS011;61651;45.508;12.232;2023-07-30T10:06:08;2.47;;;2.08;;
14007;SDS011;61651;45.508;12.232;2023-07-30T10:09:13;2.40;;;2.20;;
14007;SDS011;61651;45.508;12.232;2023-07-30T10:12:20;2.45;;;2.20;;
14007;SDS011;61651;45.508;12.232;2023-07-30T10:15:26;2.45;;;2.25;;
14007;SDS011;61651;45.508;12.232;2023-07-30T10:18:34;2.40;;;2.20;;
14007;SDS011;61651;45.508;12.232;2023-07-30T10:21:40;2.42;;;2.33;;
14007;SDS011;61651;45.508;12.232;2023-07-30T10:24:55;2.15;;;2.05;;
14007;SDS011;61651;45.508;12.232;2023-07-30T10:27:57;2.00;;;1.90;;
14007;SDS011;61651;45.508;12.232;2023-07-30T10:31:02;2.30;;;2.20;;
14007;SDS011;61651;45.508;12.232;2023-07-30T10:34:10;3.00;;;2.80;;
14007;SDS011;61651;45.508;12.232;2023-07-30T10:37:15;2.92;;;2.63;;
14007;SDS011;61651;45.508;12.232;2023-07-30T10:40:19;3.55;;;2.88;;
14007;SDS011;61651;45.508;12.232;2023-07-30T10:43:21;3.25;;;2.50;;
14007;SDS011;61651;45.508;12.232;2023-07-30T10:46:23;3.40;;;3.10;;
14007;SDS011;61651;45.508;12.232;2023-07-30T10:49:28;3.20;;;2.90;;
14007;SDS011;61651;45.508;12.232;2023-07-30T10:52:30;3.13;;;2.92;;
14007;SDS011;61651;45.508;12.232;2023-07-30T10:55:32;3.08;;;2.78;;
14007;SDS011;61651;45.508;12.232;2023-07-30T10:58:35;2.83;;;2.63;;
14007;SDS011;61651;45.508;12.232;2023-07-30T11:01:38;3.05;;;2.60;;
14007;SDS011;61651;45.508;12.232;2023-07-30T11:04:42;2.70;;;2.50;;
14007;SDS011;61651;45.508;12.232;2023-07-30T11:07:49;2.58;;;2.38;;
14007;SDS011;61651;45.508;12.232;2023-07-30T11:10:51;2.80;;;2.60;;
14007;SDS011;61651;45.508;12.232;2023-07-30T11:13:54;3.00;;;2.70;;
14007;SDS011;61651;45.508;12.232;2023-07-30T11:16:57;3.00;;;2.80;;
14007;SDS011;61651;45.508;12.232;2023-07-30T11:20:01;3.05;;;2.50;;
14007;SDS011;61651;45.508;12.232;2023-07-30T11:23:16;2.90;;;2.70;;
14007;SDS011;61651;45.508;12.232;2023-07-30T11:26:19;2.53;;;2.33;;
14007;SDS011;61651;45.508;12.232;2023-07-30T11:29:21;2.75;;;2.40;;
14007;SDS011;61651;45.508;12.232;2023-07-30T11:32:23;2.50;;;2.30;;
14007;SDS011;61651;45.508;12.232;2023-07-30T11:35:31;2.85;;;2.63;;
14007;SDS011;61651;45.508;12.232;2023-07-30T11:38:33;2.65;;;2.30;;
14007;SDS011;61651;45.508;12.232;2023-07-30T11:41:36;2.50;;;2.30;;
14007;SDS011;61651;45.508;12.232;2023-07-30T11:44:39;2.70;;;2.50;;
14007;SDS011;61651;45.508;12.232;2023-07-30T11:47:41;2.60;;;2.40;;
14007;SDS011;61651;45.508;12.232;2023-07-30T11:50:46;2.92;;;2.22;;
14007;SDS011;61651;45.508;12.232;2023-07-30T11:53:50;2.90;;;2.60;;
14007;SDS011;61651;45.508;12.232;2023-07-30T11:56:53;2.92;;;2.67;;
14007;SDS011;61651;45.508;12.232;2023-07-30T11:59:56;2.45;;;2.25;;
14007;SDS011;61651;45.508;12.232;2023-07-30T12:02:59;2.60;;;2.40;;
14007;SDS011;61651;45.508;12.232;2023-07-30T12:06:05;2.80;;;2.60;;
14007;SDS011;61651;45.508;12.232;2023-07-30T12:09:11;3.00;;;2.80;;
14007;SDS011;61651;45.508;12.232;2023-07-30T12:12:14;2.60;;;2.40;;
14007;SDS011;61651;45.508;12.232;2023-07-30T12:15:16;2.67;;;2.47;;
14007;SDS011;61651;45.508;12.232;2023-07-30T12:18:18;2.50;;;2.30;;
14007;SDS011;61651;45.508;12.232;2023-07-30T12:21:21;3.15;;;2.20;;
14007;SDS011;61651;45.508;12.232;2023-07-30T12:24:23;2.72;;;2.53;;
14007;SDS011;61651;45.508;12.232;2023-07-30T12:27:26;2.45;;;2.25;;
14007;SDS011;61651;45.508;12.232;2023-07-30T12:30:28;2.40;;;2.20;;
14007;SDS011;61651;45.508;12.232;2023-07-30T12:33:30;3.08;;;2.50;;
14007;SDS011;61651;45.508;12.232;2023-07-30T12:36:33;2.67;;;2.47;;
14007;SDS011;61651;45.508;12.232;2023-07-30T12:39:35;2.15;;;2.00;;
14007;SDS011;61651;45.508;12.232;2023-07-30T12:42:37;2.63;;;2.20;;
14007;SDS011;61651;45.508;12.232;2023-07-30T12:45:39;3.08;;;2.60;;
14007;SDS011;61651;45.508;12.232;2023-07-30T12:48:41;2.15;;;2.05;;
14007;SDS011;61651;45.508;12.232;2023-07-30T12:51:45;2.70;;;2.50;;
14007;SDS011;61651;45.508;12.232;2023-07-30T12:54:47;2.42;;;2.22;;
14007;SDS011;61651;45.508;12.232;2023-07-30T12:57:49;2.67;;;2.47;;
14007;SDS011;61651;45.508;12.232;2023-07-30T13:00:51;2.45;;;2.20;;
14007;SDS011;61651;45.508;12.232;2023-07-30T13:03:53;2.80;;;2.60;;
14007;SDS011;61651;45.508;12.232;2023-07-30T13:06:57;6.22;;;2.00;;
14007;SDS011;61651;45.508;12.232;2023-07-30T13:10:03;2.40;;;2.20;;
14007;SDS011;61651;45.508;12.232;2023-07-30T13:13:06;2.60;;;2.40;;
14007;SDS011;61651;45.508;12.232;2023-07-30T13:16:08;2.10;;;2.00;;
14007;SDS011;61651;45.508;12.232;2023-07-30T13:19:10;2.50;;;2.30;;
14007;SDS011;61651;45.508;12.232;2023-07-30T13:22:13;2.42;;;2.22;;
14007;SDS011;61651;45.508;12.232;2023-07-30T13:25:15;2.35;;;2.15;;
14007;SDS011;61651;45.508;12.232;2023-07-30T13:28:17;2.60;;;2.40;;
14007;SDS011;61651;45.508;12.232;2023-07-30T13:31:19;3.03;;;2.13;;
14007;SDS011;61651;45.508;12.232;2023-07-30T13:34:21;2.30;;;2.10;;
14007;SDS011;61651;45.508;12.232;2023-07-30T13:37:25;2.00;;;1.90;;
14007;SDS011;61651;45.508;12.232;2023-07-30T13:40:27;2.00;;;1.85;;
14007;SDS011;61651;45.508;12.232;2023-07-30T13:43:29;3.15;;;2.40;;
14007;SDS011;61651;45.508;12.232;2023-07-30T13:46:31;2.60;;;2.40;;
14007;SDS011;61651;45.508;12.232;2023-07-30T13:49:33;2.10;;;2.00;;
14007;SDS011;61651;45.508;12.232;2023-07-30T13:52:38;2.33;;;2.13;;
14007;SDS011;61651;45.508;12.232;2023-07-30T13:55:39;2.45;;;2.30;;
14007;SDS011;61651;45.508;12.232;2023-07-30T13:58:42;10.50;;;2.80;;
14007;SDS011;61651;45.508;12.232;2023-07-30T14:01:44;2.67;;;2.47;;
14007;SDS011;61651;45.508;12.232;2023-07-30T14:04:46;2.50;;;2.30;;
14007;SDS011;61651;45.508;12.232;2023-07-30T14:07:49;2.10;;;1.90;;
14007;SDS011;61651;45.508;12.232;2023-07-30T14:10:53;2.17;;;2.03;;
14007;SDS011;61651;45.508;12.232;2023-07-30T14:13:57;2.05;;;1.95;;
14007;SDS011;61651;45.508;12.232;2023-07-30T14:16:59;2.55;;;2.00;;
14007;SDS011;61651;45.508;12.232;2023-07-30T14:20:06;2.22;;;1.73;;
14007;SDS011;61651;45.508;12.232;2023-07-30T14:23:10;2.30;;;2.10;;
14007;SDS011;61651;45.508;12.232;2023-07-30T14:26:12;2.40;;;2.20;;
14007;SDS011;61651;45.508;12.232;2023-07-30T14:29:14;2.03;;;1.92;;
14007;SDS011;61651;45.508;12.232;2023-07-30T14:32:17;1.88;;;1.77;;
14007;SDS011;61651;45.508;12.232;2023-07-30T14:35:20;2.20;;;2.10;;
14007;SDS011;61651;45.508;12.232;2023-07-30T14:38:24;2.28;;;2.00;;
14007;SDS011;61651;45.508;12.232;2023-07-30T14:41:26;3.47;;;2.05;;
14007;SDS011;61651;45.508;12.232;2023-07-30T14:44:28;2.42;;;2.00;;
14007;SDS011;61651;45.508;12.232;2023-07-30T14:47:30;2.47;;;2.28;;
14007;SDS011;61651;45.508;12.232;2023-07-30T14:50:32;2.17;;;2.00;;
14007;SDS011;61651;45.508;12.232;2023-07-30T14:53:36;4.90;;;2.05;;
14007;SDS011;61651;45.508;12.232;2023-07-30T14:56:38;2.33;;;2.10;;
14007;SDS011;61651;45.508;12.232;2023-07-30T14:59:40;2.50;;;2.00;;
14007;SDS011;61651;45.508;12.232;2023-07-30T15:02:42;2.08;;;1.88;;
14007;SDS011;61651;45.508;12.232;2023-07-30T15:05:45;2.33;;;2.13;;
14007;SDS011;61651;45.508;12.232;2023-07-30T15:08:48;2.10;;;1.90;;
14007;SDS011;61651;45.508;12.232;2023-07-30T15:11:50;2.28;;;2.08;;
14007;SDS011;61651;45.508;12.232;2023-07-30T15:14:52;2.30;;;2.20;;
14007;SDS011;61651;45.508;12.232;2023-07-30T15:17:54;2.25;;;2.10;;
14007;SDS011;61651;45.508;12.232;2023-07-30T15:20:56;1.90;;;1.80;;
14007;SDS011;61651;45.508;12.232;2023-07-30T15:24:00;2.22;;;2.03;;
14007;SDS011;61651;45.508;12.232;2023-07-30T15:27:02;2.30;;;2.10;;
14007;SDS011;61651;45.508;12.232;2023-07-30T15:30:05;2.67;;;2.47;;
14007;SDS011;61651;45.508;12.232;2023-07-30T15:33:07;2.38;;;2.17;;
14007;SDS011;61651;45.508;12.232;2023-07-30T15:36:10;2.92;;;2.20;;
14007;SDS011;61651;45.508;12.232;2023-07-30T15:39:13;2.70;;;2.50;;
14007;SDS011;61651;45.508;12.232;2023-07-30T15:42:15;2.50;;;2.13;;
14007;SDS011;61651;45.508;12.232;2023-07-30T15:45:18;4.00;;;2.05;;
14007;SDS011;61651;45.508;12.232;2023-07-30T15:48:20;2.10;;;2.00;;
14007;SDS011;61651;45.508;12.232;2023-07-30T15:51:22;2.58;;;2.20;;
14007;SDS011;61651;45.508;12.232;2023-07-30T15:54:34;2.55;;;2.15;;
14007;SDS011;61651;45.508;12.232;2023-07-30T15:57:36;2.28;;;1.70;;
14007;SDS011;61651;45.508;12.232;2023-07-30T16:00:38;3.00;;;1.98;;
14007;SDS011;61651;45.508;12.232;2023-07-30T16:03:40;3.45;;;2.15;;
14007;SDS011;61651;45.508;12.232;2023-07-30T16:06:42;2.10;;;1.90;;
14007;SDS011;61651;45.508;12.232;2023-07-30T16:09:46;4.32;;;2.17;;
14007;SDS011;61651;45.508;12.232;2023-07-30T16:12:48;2.30;;;2.10;;
14007;SDS011;61651;45.508;12.232;2023-07-30T16:15:50;3.70;;;2.00;;
14007;SDS011;61651;45.508;12.232;2023-07-30T16:18:52;3.17;;;2.38;;
14007;SDS011;61651;45.508;12.232;2023-07-30T16:21:56;5.13;;;3.63;;
14007;SDS011;61651;45.508;12.232;2023-07-30T16:24:59;2.15;;;1.80;;
14007;SDS011;61651;45.508;12.232;2023-07-30T16:28:01;3.85;;;2.22;;
14007;SDS011;61651;45.508;12.232;2023-07-30T16:31:03;2.75;;;2.42;;
14007;SDS011;61651;45.508;12.232;2023-07-30T16:34:05;2.55;;;2.35;;
14007;SDS011;61651;45.508;12.232;2023-07-30T16:37:07;2.53;;;2.30;;
14007;SDS011;61651;45.508;12.232;2023-07-30T16:40:11;4.25;;;2.58;;
14007;SDS011;61651;45.508;12.232;2023-07-30T16:43:13;2.20;;;2.05;;
14007;SDS011;61651;45.508;12.232;2023-07-30T16:46:17;4.03;;;2.17;;
14007;SDS011;61651;45.508;12.232;2023-07-30T16:49:19;2.97;;;2.10;;
14007;SDS011;61651;45.508;12.232;2023-07-30T16:52:21;3.08;;;2.72;;
14007;SDS011;61651;45.508;12.232;2023-07-30T16:55:25;4.00;;;2.40;;
14007;SDS011;61651;45.508;12.232;2023-07-30T16:58:31;2.88;;;2.50;;
14007;SDS011;61651;45.508;12.232;2023-07-30T17:01:33;3.25;;;2.15;;
14007;SDS011;61651;45.508;12.232;2023-07-30T17:04:36;2.70;;;2.20;;
14007;SDS011;61651;45.508;12.232;2023-07-30T17:07:38;4.90;;;2.40;;
14007;SDS011;61651;45.508;12.232;2023-07-30T17:10:42;3.65;;;2.13;;
14007;SDS011;61651;45.508;12.232;2023-07-30T17:13:44;4.32;;;2.33;;
14007;SDS011;61651;45.508;12.232;2023-07-30T17:16:46;5.07;;;1.90;;
14007;SDS011;61651;45.508;12.232;2023-07-30T17:19:47;4.20;;;2.20;;
14007;SDS011;61651;45.508;12.232;2023-07-30T17:22:50;3.33;;;2.17;;
14007;SDS011;61651;45.508;12.232;2023-07-30T17:25:53;2.75;;;2.13;;
14007;SDS011;61651;45.508;12.232;2023-07-30T17:28:56;1.88;;;1.77;;
14007;SDS011;61651;45.508;12.232;2023-07-30T17:31:58;2.10;;;1.90;;
14007;SDS011;61651;45.508;12.232;2023-07-30T17:35:01;3.65;;;2.10;;
14007;SDS011;61651;45.508;12.232;2023-07-30T17:38:04;3.45;;;2.10;;
14007;SDS011;61651;45.508;12.232;2023-07-30T17:41:07;2.60;;;2.20;;
14007;SDS011;61651;45.508;12.232;2023-07-30T17:44:09;3.28;;;2.13;;
14007;SDS011;61651;45.508;12.232;2023-07-30T17:47:11;2.20;;;2.00;;
14007;SDS011;61651;45.508;12.232;2023-07-30T17:50:15;3.47;;;1.90;;
14007;SDS011;61651;45.508;12.232;2023-07-30T17:53:17;2.30;;;1.98;;
14007;SDS011;61651;45.508;12.232;2023-07-30T17:56:20;4.90;;;2.75;;
14007;SDS011;61651;45.508;12.232;2023-07-30T17:59:22;5.80;;;2.22;;
14007;SDS011;61651;45.508;12.232;2023-07-30T18:02:25;3.55;;;2.45;;
14007;SDS011;61651;45.508;12.232;2023-07-30T18:05:28;2.53;;;2.00;;
14007;SDS011;61651;45.508;12.232;2023-07-30T18:08:30;5.53;;;2.30;;
14007;SDS011;61651;45.508;12.232;2023-07-30T18:11:33;3.08;;;2.22;;
14007;SDS011;61651;45.508;12.232;2023-07-30T18:14:35;2.30;;;2.10;;
14007;SDS011;61651;45.508;12.232;2023-07-30T18:17:38;2.58;;;2.38;;
14007;SDS011;61651;45.508;12.232;2023-07-30T18:20:40;4.40;;;2.20;;
14007;SDS011;61651;45.508;12.232;2023-07-30T18:23:42;2.45;;;2.10;;
14007;SDS011;61651;45.508;12.232;2023-07-30T18:26:45;2.38;;;2.17;;
14007;SDS011;61651;45.508;12.232;2023-07-30T18:29:48;2.80;;;2.60;;
14007;SDS011;61651;45.508;12.232;2023-07-30T18:32:50;3.42;;;2.30;;
14007;SDS011;61651;45.508;12.232;2023-07-30T18:35:55;2.30;;;2.15;;
14007;SDS011;61651;45.508;12.232;2023-07-30T18:38:58;4.22;;;2.10;;
14007;SDS011;61651;45.508;12.232;2023-07-30T18:42:02;4.18;;;2.38;;
14007;SDS011;61651;45.508;12.232;2023-07-30T18:45:05;1.95;;;1.80;;
14007;SDS011;61651;45.508;12.232;2023-07-30T18:48:07;2.33;;;2.00;;
14007;SDS011;61651;45.508;12.232;2023-07-30T18:51:10;3.45;;;2.30;;
14007;SDS011;61651;45.508;12.232;2023-07-30T18:54:12;2.55;;;2.35;;
14007;SDS011;61651;45.508;12.232;2023-07-30T18:57:15;3.28;;;2.38;;
14007;SDS011;61651;45.508;12.232;2023-07-30T19:00:17;2.92;;;2.00;;
14007;SDS011;61651;45.508;12.232;2023-07-30T19:03:19;2.17;;;2.05;;
14007;SDS011;61651;45.508;12.232;2023-07-30T19:06:21;2.70;;;2.30;;
14007;SDS011;61651;45.508;12.232;2023-07-30T19:09:24;3.83;;;2.10;;
14007;SDS011;61651;45.508;12.232;2023-07-30T19:12:28;2.20;;;2.00;;
14007;SDS011;61651;45.508;12.232;2023-07-30T19:15:30;3.25;;;2.17;;
14007;SDS011;61651;45.508;12.232;2023-07-30T19:18:32;2.50;;;2.30;;
14007;SDS011;61651;45.508;12.232;2023-07-30T19:21:34;2.67;;;2.20;;
14007;SDS011;61651;45.508;12.232;2023-07-30T19:24:36;2.80;;;2.35;;
14007;SDS011;61651;45.508;12.232;2023-07-30T19:27:39;2.70;;;2.10;;
14007;SDS011;61651;45.508;12.232;2023-07-30T19:30:41;2.50;;;2.30;;
14007;SDS011;61651;45.508;12.232;2023-07-30T19:33:44;3.95;;;2.35;;
14007;SDS011;61651;45.508;12.232;2023-07-30T19:36:46;2.45;;;2.13;;
14007;SDS011;61651;45.508;12.232;2023-07-30T19:39:48;2.20;;;2.10;;
14007;SDS011;61651;45.508;12.232;2023-07-30T19:42:51;2.55;;;2.35;;
14007;SDS011;61651;45.508;12.232;2023-07-30T19:45:54;2.47;;;2.10;;
14007;SDS011;61651;45.508;12.232;2023-07-30T19:48:56;2.20;;;2.00;;
14007;SDS011;61651;45.508;12.232;2023-07-30T19:51:58;2.50;;;2.30;;
14007;SDS011;61651;45.508;12.232;2023-07-30T19:55:00;3.13;;;2.30;;
14007;SDS011;61651;45.508;12.232;2023-07-30T19:58:08;3.63;;;2.58;;
14007;SDS011;61651;45.508;12.232;2023-07-30T20:01:24;2.70;;;2.50;;
14007;SDS011;61651;45.508;12.232;2023-07-30T20:04:27;2.70;;;2.50;;
14007;SDS011;61651;45.508;12.232;2023-07-30T20:07:29;3.03;;;2.40;;
14007;SDS011;61651;45.508;12.232;2023-07-30T20:10:31;2.55;;;2.35;;
14007;SDS011;61651;45.508;12.232;2023-07-30T20:13:35;2.55;;;2.35;;
14007;SDS011;61651;45.508;12.232;2023-07-30T20:16:37;3.30;;;2.28;;
14007;SDS011;61651;45.508;12.232;2023-07-30T20:19:39;2.22;;;2.08;;
14007;SDS011;61651;45.508;12.232;2023-07-30T20:22:41;2.50;;;2.30;;
14007;SDS011;61651;45.508;12.232;2023-07-30T20:25:43;2.60;;;2.30;;
14007;SDS011;61651;45.508;12.232;2023-07-30T20:28:47;2.40;;;2.22;;
14007;SDS011;61651;45.508;12.232;2023-07-30T20:31:51;2.70;;;2.50;;
14007;SDS011;61651;45.508;12.232;2023-07-30T20:34:55;3.42;;;2.33;;
14007;SDS011;61651;45.508;12.232;2023-07-30T20:37:57;2.42;;;2.22;;
14007;SDS011;61651;45.508;12.232;2023-07-30T20:41:00;2.67;;;2.40;;
14007;SDS011;61651;45.508;12.232;2023-07-30T20:44:03;2.90;;;2.70;;
14007;SDS011;61651;45.508;12.232;2023-07-30T20:47:05;3.63;;;2.20;;
14007;SDS011;61651;45.508;12.232;2023-07-30T20:50:08;2.50;;;2.30;;
14007;SDS011;61651;45.508;12.232;2023-07-30T20:53:15;2.70;;;2.50;;
14007;SDS011;61651;45.508;12.232;2023-07-30T20:56:17;2.70;;;2.50;;
14007;SDS011;61651;45.508;12.232;2023-07-30T20:59:21;3.10;;;2.80;;
14007;SDS011;61651;45.508;12.232;2023-07-30T21:02:23;3.40;;;2.80;;
14007;SDS011;61651;45.508;12.232;2023-07-30T21:05:25;2.70;;;2.50;;
14007;SDS011;61651;45.508;12.232;2023-07-30T21:08:27;3.35;;;2.60;;
14007;SDS011;61651;45.508;12.232;2023-07-30T21:11:30;4.30;;;2.58;;
14007;SDS011;61651;45.508;12.232;2023-07-30T21:14:34;2.40;;;2.20;;
14007;SDS011;61651;45.508;12.232;2023-07-30T21:17:36;2.85;;;2.58;;
14007;SDS011;61651;45.508;12.232;2023-07-30T21:20:38;4.10;;;2.65;;
14007;SDS011;61651;45.508;12.232;2023-07-30T21:23:40;2.65;;;2.45;;
14007;SDS011;61651;45.508;12.232;2023-07-30T21:26:42;3.40;;;2.58;;
14007;SDS011;61651;45.508;12.232;2023-07-30T21:29:46;3.45;;;3.15;;
14007;SDS011;61651;45.508;12.232;2023-07-30T21:32:48;4.30;;;2.83;;
14007;SDS011;61651;45.508;12.232;2023-07-30T21:35:50;2.70;;;2.50;;
14007;SDS011;61651;45.508;12.232;2023-07-30T21:38:52;2.95;;;2.75;;
14007;SDS011;61651;45.508;12.232;2023-07-30T21:41:54;5.43;;;2.88;;
14007;SDS011;61651;45.508;12.232;2023-07-30T21:44:58;6.43;;;2.53;;
14007;SDS011;61651;45.508;12.232;2023-07-30T21:48:00;2.67;;;2.47;;
14007;SDS011;61651;45.508;12.232;2023-07-30T21:51:02;4.53;;;3.13;;
14007;SDS011;61651;45.508;12.232;2023-07-30T21:54:05;2.97;;;2.72;;
14007;SDS011;61651;45.508;12.232;2023-07-30T21:57:07;3.47;;;2.67;;
14007;SDS011;61651;45.508;12.232;2023-07-30T22:00:11;3.30;;;2.83;;
14007;SDS011;61651;45.508;12.232;2023-07-30T22:03:13;2.90;;;2.70;;
14007;SDS011;61651;45.508;12.232;2023-07-30T22:06:16;5.70;;;2.50;;
14007;SDS011;61651;45.508;12.232;2023-07-30T22:09:18;5.88;;;3.05;;
14007;SDS011;61651;45.508;12.232;2023-07-30T22:12:20;3.45;;;2.78;;
14007;SDS011;61651;45.508;12.232;2023-07-30T22:15:23;3.10;;;2.88;;
14007;SDS011;61651;45.508;12.232;2023-07-30T22:18:25;3.10;;;2.90;;
14007;SDS011;61651;45.508;12.232;2023-07-30T22:21:27;2.95;;;2.75;;
14007;SDS011;61651;45.508;12.232;2023-07-30T22:24:29;3.70;;;3.05;;
14007;SDS011;61651;45.508;12.232;2023-07-30T22:27:31;3.83;;;3.00;;
14007;SDS011;61651;45.508;12.232;2023-07-30T22:30:37;3.00;;;2.70;;
14007;SDS011;61651;45.508;12.232;2023-07-30T22:33:39;3.28;;;3.03;;
14007;SDS011;61651;45.508;12.232;2023-07-30T22:36:41;3.67;;;3.38;;
14007;SDS011;61651;45.508;12.232;2023-07-30T22:39:43;3.53;;;3.22;;
14007;SDS011;61651;45.508;12.232;2023-07-30T22:42:45;4.07;;;3.08;;
14007;SDS011;61651;45.508;12.232;2023-07-30T22:45:49;3.55;;;3.22;;
14007;SDS011;61651;45.508;12.232;2023-07-30T22:48:51;3.92;;;3.50;;
14007;SDS011;61651;45.508;12.232;2023-07-30T22:51:53;4.03;;;3.05;;
14007;SDS011;61651;45.508;12.232;2023-07-30T22:54:55;5.80;;;3.70;;
14007;SDS011;61651;45.508;12.232;2023-07-30T22:57:57;3.40;;;3.03;;
14007;SDS011;61651;45.508;12.232;2023-07-30T23:01:01;3.15;;;2.95;;
14007;SDS011;61651;45.508;12.232;2023-07-30T23:04:03;3.42;;;3.13;;
14007;SDS011;61651;45.508;12.232;2023-07-30T23:07:05;3.78;;;3.08;;
14007;SDS011;61651;45.508;12.232;2023-07-30T23:10:08;3.17;;;2.88;;
14007;SDS011;61651;45.508;12.232;2023-07-30T23:13:10;4.63;;;3.22;;
14007;SDS011;61651;45.508;12.232;2023-07-30T23:16:13;3.50;;;3.20;;
14007;SDS011;61651;45.508;12.232;2023-07-30T23:19:15;3.75;;;3.45;;
14007;SDS011;61651;45.508;12.232;2023-07-30T23:22:17;3.38;;;3.08;;
14007;SDS011;61651;45.508;12.232;2023-07-30T23:25:19;3.50;;;3.20;;
14007;SDS011;61651;45.508;12.232;2023-07-30T23:28:21;3.28;;;2.97;;
14007;SDS011;61651;45.508;12.232;2023-07-30T23:31:25;3.13;;;2.90;;
14007;SDS011;61651;45.508;12.232;2023-07-30T23:34:27;3.53;;;3.22;;
14007;SDS011;61651;45.508;12.232;2023-07-30T23:37:29;4.63;;;3.25;;
14007;SDS011;61651;45.508;12.232;2023-07-30T23:40:31;3.60;;;3.30;;
14007;SDS011;61651;45.508;12.232;2023-07-30T23:43:33;3.70;;;3.08;;
14007;SDS011;61651;45.508;12.232;2023-07-30T23:46:37;4.55;;;3.33;;
14007;SDS011;61651;45.508;12.232;2023-07-30T23:49:39;3.70;;;3.40;;
14007;SDS011;61651;45.508;12.232;2023-07-30T23:52:41;3.85;;;3.47;;
14007;SDS011;61651;45.508;12.232;2023-07-30T23:55:42;5.32;;;3.60;;
14007;SDS011;61651;45.508;12.232;2023-07-30T23:58:44;5.05;;;3.97;;
